createdAt,value
2022-11-11T03:13:58.866Z,99532.28
2022-11-11T03:34:19.802Z,99540.28
2022-11-11T03:54:23.205Z,99521.47
2022-11-11T04:14:44.737Z,99536.06
2022-11-11T04:34:47.430Z,99524.56
2022-11-11T04:55:08.649Z,99540.09
2022-11-11T05:15:29.930Z,99560.81
2022-11-11T05:35:32.563Z,99591.19
2022-11-11T05:55:35.002Z,99611.03
2022-11-11T06:15:37.508Z,99621.38
2022-11-11T06:35:39.901Z,99637.69
2022-11-11T06:55:42.307Z,99615.28
2022-11-11T07:15:44.776Z,99640.16
2022-11-11T07:35:47.188Z,99621.91
2022-11-11T07:55:49.631Z,99602.19
2022-11-11T08:15:52.081Z,99598.50
2022-11-11T08:35:55.544Z,99583.09
2022-11-11T08:55:58.021Z,99592.47
2022-11-11T09:16:00.930Z,99603.13
2022-11-11T09:36:03.425Z,99598.84
2022-11-11T09:56:17.601Z,99599.91
2022-11-11T10:16:28.297Z,99616.78
2022-11-11T10:36:34.385Z,99611.50
2022-11-11T10:56:39.584Z,99597.63
2022-11-11T11:16:45.279Z,99569.47
2022-11-11T11:36:47.707Z,99568.84
2022-11-11T11:56:50.105Z,99569.50
2022-11-11T12:16:52.829Z,99561.63
2022-11-11T12:36:55.271Z,99554.00
2022-11-11T12:56:57.724Z,99532.84
2022-11-11T13:17:00.357Z,99541.53
2022-11-11T13:37:03.814Z,99535.31
2022-11-11T13:57:10.767Z,99516.38
2022-11-11T14:17:13.152Z,99531.94
2022-11-11T14:37:16.540Z,99525.56
2022-11-11T14:57:20.166Z,99534.75
2022-11-11T15:17:22.570Z,99523.88
2022-11-11T15:37:26.009Z,99538.84
2022-11-11T15:57:28.531Z,99535.00
2022-11-11T16:17:31.169Z,99555.59
2022-11-11T16:37:33.579Z,99540.81
2022-11-11T16:57:36.032Z,99550.91
2022-11-11T17:17:38.460Z,99555.94
2022-11-11T17:37:40.929Z,99574.53
2022-11-11T17:57:43.460Z,99575.50
2022-11-11T18:17:45.854Z,99562.16
2022-11-11T18:37:48.393Z,99573.78
2022-11-11T18:57:50.940Z,99591.97
2022-11-11T19:17:53.348Z,99603.94
2022-11-11T19:37:57.952Z,99624.25
2022-11-11T19:58:00.381Z,99645.44
2022-11-11T20:18:02.806Z,99647.16
2022-11-11T20:38:05.411Z,99639.03
2022-11-11T20:58:08.119Z,99625.75
2022-11-11T21:18:10.515Z,99620.78
2022-11-11T21:38:12.899Z,99605.84
2022-11-11T21:58:15.302Z,99582.37
2022-11-11T22:18:17.731Z,99612.06
2022-11-11T22:38:20.109Z,99637.03
2022-11-11T22:58:25.134Z,99644.72
2022-11-11T23:38:53.509Z,99621.47
2022-11-11T23:58:55.915Z,99612.09
